createdAt,value
2022-12-24T00:01:05.831Z,10.51
2022-12-24T00:03:32.975Z,10.59
2022-12-24T00:06:03.733Z,10.58
2022-12-24T00:08:30.536Z,10.59
2022-12-24T00:10:57.351Z,10.61
2022-12-24T00:13:24.161Z,10.57
2022-12-24T00:15:51.006Z,10.57
2022-12-24T00:18:17.815Z,10.54
2022-12-24T00:20:48.280Z,10.58
2022-12-24T00:23:15.793Z,10.53
2022-12-24T00:25:42.621Z,10.47
2022-12-24T00:28:09.445Z,10.48
2022-12-24T00:30:37.816Z,10.53
2022-12-24T00:33:04.876Z,10.52
2022-12-24T00:35:34.031Z,10.51
2022-12-24T00:38:00.821Z,10.40
2022-12-24T00:40:27.638Z,10.41
2022-12-24T00:42:54.450Z,10.41
2022-12-24T00:45:21.271Z,10.41
2022-12-24T00:47:48.285Z,10.38
2022-12-24T00:50:15.332Z,10.47
2022-12-24T00:52:42.134Z,10.45
2022-12-24T00:55:09.154Z,10.43
2022-12-24T00:57:35.953Z,9.66
2022-12-24T01:00:03.434Z,10.35
2022-12-24T01:02:30.461Z,10.34
2022-12-24T01:05:12.484Z,10.31
2022-12-24T01:07:40.952Z,10.39
2022-12-24T01:10:08.134Z,10.44
2022-12-24T01:12:35.079Z,10.46
2022-12-24T01:15:01.982Z,10.43
2022-12-24T01:17:31.147Z,10.43
2022-12-24T01:19:57.983Z,10.35
2022-12-24T01:22:24.840Z,10.39
2022-12-24T01:24:51.712Z,10.32
2022-12-24T01:27:18.563Z,10.31
2022-12-24T01:29:45.482Z,10.37
2022-12-24T01:32:12.304Z,10.36
2022-12-24T01:34:39.145Z,10.39
2022-12-24T01:37:06.025Z,10.37
2022-12-24T01:39:32.873Z,10.31
2022-12-24T01:42:18.452Z,10.18
2022-12-24T01:44:48.001Z,9.99
2022-12-24T01:47:14.829Z,9.99
2022-12-24T01:49:43.426Z,9.79
2022-12-24T01:52:16.538Z,9.81
2022-12-24T01:54:55.209Z,9.74
2022-12-24T01:57:24.410Z,9.79
2022-12-24T01:59:53.440Z,9.66
2022-12-24T02:02:21.075Z,9.41
2022-12-24T02:04:56.082Z,9.50
2022-12-24T02:07:23.035Z,9.44
2022-12-24T02:09:53.188Z,9.49
2022-12-24T02:12:20.064Z,9.47
2022-12-24T02:14:46.906Z,9.52
2022-12-24T02:17:16.465Z,9.56
2022-12-24T02:19:55.228Z,9.55
2022-12-24T02:22:30.972Z,9.51
2022-12-24T02:25:08.705Z,9.48
2022-12-24T02:27:51.945Z,9.53
2022-12-24T02:30:23.248Z,9.35
2022-12-24T02:32:56.781Z,9.50
2022-12-24T02:35:43.868Z,9.44
2022-12-24T02:38:17.547Z,9.38
2022-12-24T02:41:04.717Z,9.53
2022-12-24T02:43:36.871Z,9.46
2022-12-24T02:46:07.679Z,9.38
2022-12-24T02:48:36.199Z,9.43
2022-12-24T02:51:07.484Z,9.18
2022-12-24T02:53:35.012Z,9.17
2022-12-24T02:56:01.832Z,9.32
2022-12-24T02:58:28.667Z,9.40
2022-12-24T03:01:17.262Z,9.40
2022-12-24T03:03:53.175Z,9.51
2022-12-24T03:06:27.447Z,9.49
2022-12-24T03:09:00.954Z,9.46
2022-12-24T03:11:27.845Z,9.51
2022-12-24T03:13:55.188Z,9.63
2022-12-24T03:16:24.385Z,9.69
2022-12-24T03:18:53.165Z,9.66
2022-12-24T03:21:25.863Z,9.68
2022-12-24T03:23:52.808Z,9.66
2022-12-24T03:26:20.158Z,9.65
2022-12-24T03:28:48.020Z,9.59
2022-12-24T03:31:15.217Z,9.63
2022-12-24T03:33:42.427Z,9.58
2022-12-24T03:36:09.649Z,9.62
2022-12-24T03:38:36.516Z,9.62
2022-12-24T03:41:03.828Z,9.72
2022-12-24T03:43:30.667Z,9.71
2022-12-24T03:45:57.670Z,9.76
2022-12-24T03:48:29.150Z,9.70
2022-12-24T03:50:59.576Z,9.71
2022-12-24T03:53:26.419Z,9.75
2022-12-24T03:55:53.202Z,9.81
2022-12-24T03:58:20.030Z,9.75
2022-12-24T04:00:46.913Z,9.76
2022-12-24T04:03:14.004Z,9.87
2022-12-24T04:05:40.866Z,9.75
2022-12-24T04:08:07.692Z,9.83
2022-12-24T04:10:34.752Z,9.62
2022-12-24T04:13:01.564Z,9.66
2022-12-24T04:15:28.422Z,9.74
2022-12-24T04:17:55.286Z,9.76
2022-12-24T04:20:22.089Z,9.65
2022-12-24T04:22:48.923Z,9.59
2022-12-24T04:25:15.831Z,9.54
2022-12-24T04:27:42.650Z,9.59
2022-12-24T04:30:09.820Z,9.59
2022-12-24T04:32:36.665Z,9.65
2022-12-24T04:35:03.504Z,9.57
2022-12-24T04:37:30.358Z,9.53
2022-12-24T04:39:57.183Z,9.57
2022-12-24T04:42:24.012Z,9.51
2022-12-24T04:44:50.933Z,9.56
2022-12-24T04:47:17.718Z,9.55
2022-12-24T04:49:44.628Z,9.55
2022-12-24T04:52:11.431Z,9.45
2022-12-24T04:54:39.795Z,9.46
2022-12-24T04:57:06.637Z,9.38
2022-12-24T04:59:33.483Z,9.33
2022-12-24T05:02:00.434Z,9.17
2022-12-24T05:04:27.391Z,9.29
2022-12-24T05:06:54.237Z,9.21
2022-12-24T05:09:21.066Z,9.20
2022-12-24T05:11:47.911Z,9.24
2022-12-24T05:14:14.845Z,9.14
2022-12-24T05:16:41.788Z,9.13
2022-12-24T05:19:08.658Z,9.15
2022-12-24T05:21:35.628Z,9.13
2022-12-24T05:24:20.949Z,9.18
2022-12-24T05:26:55.851Z,9.21
2022-12-24T05:29:23.241Z,9.19
2022-12-24T05:31:50.127Z,9.10
2022-12-24T05:34:17.342Z,9.17
2022-12-24T05:36:44.528Z,9.09
2022-12-24T05:39:18.276Z,9.13
2022-12-24T05:41:45.315Z,9.20
2022-12-24T05:44:12.289Z,9.23
2022-12-24T05:46:39.293Z,9.21
2022-12-24T05:49:06.263Z,9.16
2022-12-24T05:51:33.113Z,9.26
2022-12-24T05:53:59.977Z,9.27
2022-12-24T05:56:26.822Z,9.17
2022-12-24T05:58:54.555Z,9.21
2022-12-24T06:01:22.461Z,9.27
2022-12-24T06:03:49.818Z,9.19
2022-12-24T06:06:19.196Z,9.28
2022-12-24T06:08:46.637Z,9.23
2022-12-24T06:11:15.243Z,9.26
2022-12-24T06:13:42.439Z,9.33
2022-12-24T06:16:12.445Z,9.27
2022-12-24T06:18:39.629Z,9.24
2022-12-24T06:21:07.307Z,9.35
2022-12-24T06:23:35.695Z,9.30
2022-12-24T06:26:03.236Z,9.34
2022-12-24T06:28:31.237Z,9.37
2022-12-24T06:31:02.729Z,9.42
2022-12-24T06:33:30.756Z,9.41
2022-12-24T06:35:57.610Z,9.33
2022-12-24T06:38:24.899Z,9.44
2022-12-24T06:40:51.740Z,9.30
2022-12-24T06:43:18.570Z,9.36
2022-12-24T06:45:46.639Z,9.41
2022-12-24T06:48:13.703Z,9.44
2022-12-24T06:50:40.594Z,9.42
2022-12-24T06:53:07.918Z,9.35
2022-12-24T06:55:34.878Z,9.25
2022-12-24T06:58:01.770Z,9.35
2022-12-24T07:00:28.687Z,9.42
2022-12-24T07:02:55.643Z,9.36
2022-12-24T07:05:22.492Z,9.40
2022-12-24T07:07:49.300Z,9.41
2022-12-24T07:10:16.778Z,9.34
2022-12-24T07:12:43.996Z,8.83
2022-12-24T07:15:11.224Z,9.38
2022-12-24T07:17:38.139Z,9.37
2022-12-24T07:20:06.094Z,9.42
2022-12-24T07:22:33.017Z,9.30
2022-12-24T07:24:59.963Z,9.37
2022-12-24T07:27:26.915Z,9.29
2022-12-24T07:29:53.764Z,9.33
2022-12-24T07:32:20.797Z,9.31
2022-12-24T07:34:47.747Z,9.19
2022-12-24T07:37:14.552Z,9.22
2022-12-24T07:39:41.362Z,9.21
2022-12-24T07:42:08.526Z,9.21
2022-12-24T07:44:35.955Z,9.21
2022-12-24T07:47:02.904Z,9.46
2022-12-24T07:49:29.875Z,9.39
2022-12-24T07:51:56.736Z,9.36
2022-12-24T07:54:23.675Z,9.44
2022-12-24T07:56:50.694Z,9.46
2022-12-24T07:59:17.646Z,9.35
2022-12-24T08:01:45.538Z,9.45
2022-12-24T08:04:12.747Z,9.40
2022-12-24T08:06:39.977Z,9.33
2022-12-24T08:09:07.144Z,9.40
2022-12-24T08:11:33.970Z,8.66
2022-12-24T08:14:00.847Z,9.23
2022-12-24T08:16:27.745Z,9.44
2022-12-24T08:18:54.788Z,9.47
2022-12-24T08:21:21.775Z,9.39
2022-12-24T08:23:48.681Z,9.43
2022-12-24T08:26:15.672Z,9.46
2022-12-24T08:28:42.546Z,9.53
2022-12-24T08:31:09.470Z,9.45
2022-12-24T08:33:36.444Z,9.38
2022-12-24T08:36:03.401Z,9.48
2022-12-24T08:38:30.265Z,9.57
2022-12-24T08:40:57.157Z,9.69
2022-12-24T08:43:25.361Z,9.59
2022-12-24T08:45:52.896Z,9.58
2022-12-24T08:48:20.107Z,9.56
2022-12-24T08:50:46.975Z,9.60
2022-12-24T08:53:13.802Z,9.65
2022-12-24T08:55:40.730Z,9.74
2022-12-24T08:58:07.633Z,9.69
2022-12-24T09:00:34.617Z,9.82
2022-12-24T09:03:01.611Z,9.78
2022-12-24T09:05:29.060Z,9.70
2022-12-24T09:07:56.014Z,9.76
2022-12-24T09:10:22.933Z,9.82
2022-12-24T09:12:50.980Z,9.91
2022-12-24T09:15:17.945Z,9.92
2022-12-24T09:17:44.751Z,9.93
2022-12-24T09:20:11.713Z,9.88
2022-12-24T09:22:42.101Z,9.96
2022-12-24T09:25:10.526Z,10.02
2022-12-24T09:27:37.648Z,9.88
2022-12-24T09:30:05.119Z,10.00
2022-12-24T09:32:31.946Z,9.92
2022-12-24T09:34:58.967Z,9.85
2022-12-24T09:37:25.924Z,9.85
2022-12-24T09:39:52.835Z,9.81
2022-12-24T09:42:27.772Z,9.86
2022-12-24T09:45:05.554Z,9.90
2022-12-24T09:47:43.914Z,9.87
2022-12-24T09:50:26.308Z,9.88
2022-12-24T09:52:54.210Z,9.94
2022-12-24T09:55:32.691Z,9.98
2022-12-24T09:58:00.936Z,9.88
2022-12-24T10:00:30.036Z,9.88
2022-12-24T10:02:57.558Z,9.89
2022-12-24T10:05:47.476Z,9.97
2022-12-24T10:08:17.333Z,10.06
2022-12-24T10:10:54.253Z,10.06
2022-12-24T10:13:21.077Z,10.01
2022-12-24T10:15:47.891Z,10.02
2022-12-24T10:18:17.645Z,10.05
2022-12-24T10:20:47.860Z,10.01
2022-12-24T10:23:34.943Z,9.96
2022-12-24T10:26:10.808Z,10.14
2022-12-24T10:28:49.240Z,10.15
2022-12-24T10:31:16.178Z,10.05
2022-12-24T10:33:49.818Z,10.17
2022-12-24T10:36:18.472Z,10.23
2022-12-24T10:38:45.741Z,10.14
2022-12-24T10:41:13.198Z,10.22
2022-12-24T10:43:42.295Z,10.22
2022-12-24T10:46:21.045Z,10.17
2022-12-24T10:48:53.309Z,10.19
2022-12-24T10:51:33.627Z,10.20
2022-12-24T10:54:10.284Z,10.23
2022-12-24T10:56:45.033Z,10.21
2022-12-24T10:59:25.835Z,10.14
2022-12-24T11:01:53.329Z,10.21
2022-12-24T11:04:22.201Z,10.31
2022-12-24T11:06:57.169Z,10.19
2022-12-24T11:09:44.362Z,10.11
2022-12-24T11:12:21.626Z,10.10
2022-12-24T11:14:49.805Z,10.08
2022-12-24T11:17:22.315Z,10.06
2022-12-24T11:19:50.085Z,10.01
2022-12-24T11:22:28.071Z,10.00
2022-12-24T11:25:15.116Z,10.07
2022-12-24T11:27:45.887Z,10.20
2022-12-24T11:30:15.817Z,10.13
2022-12-24T11:32:43.646Z,10.26
2022-12-24T11:35:16.295Z,10.17
2022-12-24T11:37:43.125Z,10.13
2022-12-24T11:40:23.855Z,10.12
2022-12-24T11:42:53.805Z,10.19
2022-12-24T11:45:20.743Z,10.15
2022-12-24T11:47:47.587Z,10.24
2022-12-24T11:50:29.551Z,10.26
2022-12-24T11:53:05.684Z,10.31
2022-12-24T11:55:41.833Z,10.40
2022-12-24T11:58:11.454Z,10.58
2022-12-24T12:00:40.067Z,10.53
2022-12-24T12:03:16.534Z,10.58
2022-12-24T12:05:43.449Z,10.52
2022-12-24T12:08:18.861Z,10.43
2022-12-24T12:10:46.662Z,10.49
2022-12-24T12:13:16.371Z,10.55
2022-12-24T12:15:55.582Z,10.74
2022-12-24T12:18:26.344Z,10.77
2022-12-24T12:21:06.453Z,10.77
2022-12-24T12:23:35.476Z,10.90
2022-12-24T12:26:15.146Z,10.97
2022-12-24T12:29:00.781Z,10.85
2022-12-24T12:31:27.823Z,10.71
2022-12-24T12:34:00.708Z,10.89
2022-12-24T12:36:31.362Z,11.14
2022-12-24T12:38:58.248Z,11.43
2022-12-24T12:41:38.178Z,11.31
2022-12-24T12:44:24.164Z,11.44
2022-12-24T12:47:00.109Z,11.32
2022-12-24T12:49:30.097Z,11.37
2022-12-24T12:52:02.997Z,11.40
2022-12-24T12:54:29.880Z,11.37
2022-12-24T12:57:00.288Z,11.36
2022-12-24T12:59:32.118Z,11.17
2022-12-24T13:02:04.890Z,11.25
2022-12-24T13:04:31.926Z,11.18
2022-12-24T13:06:58.762Z,11.18
2022-12-24T13:09:35.551Z,11.13
2022-12-24T13:12:08.191Z,11.18
2022-12-24T13:14:40.948Z,11.10
2022-12-24T13:17:26.519Z,11.00
2022-12-24T13:19:59.160Z,11.02
2022-12-24T13:22:25.979Z,11.12
2022-12-24T13:24:56.702Z,11.15
2022-12-24T13:27:25.873Z,11.03
2022-12-24T13:30:08.773Z,10.93
2022-12-24T13:32:37.813Z,10.86
2022-12-24T13:35:25.118Z,10.81
2022-12-24T13:37:52.132Z,10.80
2022-12-24T13:40:22.098Z,10.79
2022-12-24T13:43:05.151Z,10.80
2022-12-24T13:45:37.878Z,10.74
2022-12-24T13:48:07.444Z,10.73
2022-12-24T13:50:44.925Z,10.74
2022-12-24T13:53:26.400Z,10.70
2022-12-24T13:55:58.398Z,10.68
2022-12-24T13:58:25.683Z,10.74
2022-12-24T14:00:55.338Z,10.74
2022-12-24T14:03:25.093Z,10.70
2022-12-24T14:06:12.177Z,10.66
2022-12-24T14:08:41.977Z,10.71
2022-12-24T14:11:16.543Z,10.88
2022-12-24T14:13:46.230Z,10.83
2022-12-24T14:16:16.288Z,10.64
2022-12-24T14:18:45.981Z,10.51
2022-12-24T14:21:15.990Z,10.51
2022-12-24T14:23:57.040Z,9.85
2022-12-24T14:26:27.116Z,10.17
2022-12-24T14:28:59.208Z,10.15
2022-12-24T14:31:26.105Z,10.09
2022-12-24T14:34:04.823Z,10.06
2022-12-24T14:36:31.641Z,9.99
2022-12-24T14:38:59.773Z,9.95
2022-12-24T14:41:32.730Z,10.03
2022-12-24T14:44:14.767Z,10.08
2022-12-24T14:46:50.941Z,10.06
2022-12-24T14:49:36.654Z,10.10
2022-12-24T14:52:30.845Z,10.13
2022-12-24T14:54:57.545Z,10.07
2022-12-24T14:57:27.239Z,9.98
2022-12-24T14:59:55.300Z,9.86
2022-12-24T15:02:34.225Z,9.76
2022-12-24T15:05:10.397Z,9.76
2022-12-24T15:07:45.439Z,9.61
2022-12-24T15:10:24.476Z,9.51
2022-12-24T15:12:51.627Z,9.33
2022-12-24T15:15:18.907Z,9.18
2022-12-24T15:17:46.218Z,9.07
2022-12-24T15:20:18.615Z,8.99
2022-12-24T15:22:46.789Z,9.00
2022-12-24T15:25:18.791Z,9.06
2022-12-24T15:27:45.631Z,9.15
2022-12-24T15:30:16.939Z,9.08
2022-12-24T15:32:43.865Z,8.94
2022-12-24T15:35:29.688Z,8.84
2022-12-24T15:37:58.270Z,8.73
2022-12-24T15:40:25.285Z,8.58
2022-12-24T15:42:52.651Z,8.49
2022-12-24T15:45:27.553Z,8.39
2022-12-24T15:47:57.782Z,8.45
2022-12-24T15:50:32.815Z,8.54
2022-12-24T15:53:18.550Z,8.59
2022-12-24T15:56:00.128Z,8.64
2022-12-24T15:58:28.178Z,8.66
2022-12-24T16:01:02.145Z,8.70
2022-12-24T16:03:29.619Z,8.65
2022-12-24T16:06:07.755Z,8.62
2022-12-24T16:08:35.605Z,8.61
2022-12-24T16:11:05.429Z,8.61
2022-12-24T16:13:37.865Z,8.57
2022-12-24T16:16:06.860Z,8.55
2022-12-24T16:18:35.213Z,8.56
2022-12-24T16:21:02.902Z,8.50
2022-12-24T16:23:34.093Z,8.52
2022-12-24T16:26:00.944Z,8.58
2022-12-24T16:28:27.855Z,8.58
2022-12-24T16:30:56.263Z,8.47
2022-12-24T16:33:23.722Z,8.43
2022-12-24T16:35:50.711Z,8.64
2022-12-24T16:38:17.535Z,8.61
2022-12-24T16:40:44.362Z,8.44
2022-12-24T16:43:29.934Z,8.41
2022-12-24T16:46:00.784Z,8.22
2022-12-24T16:48:27.841Z,8.12
2022-12-24T16:50:54.834Z,8.04
2022-12-24T16:53:22.280Z,7.92
2022-12-24T16:55:51.404Z,7.90
2022-12-24T16:58:18.681Z,7.93
2022-12-24T17:00:46.072Z,6.92
2022-12-24T17:03:13.228Z,7.86
2022-12-24T17:05:41.092Z,7.97
2022-12-24T17:08:08.425Z,7.89
2022-12-24T17:10:35.816Z,7.77
2022-12-24T17:13:02.675Z,7.72
2022-12-24T17:15:29.551Z,7.67
2022-12-24T17:17:56.388Z,7.52
2022-12-24T17:20:24.443Z,7.63
2022-12-24T17:22:51.944Z,7.58
2022-12-24T17:25:18.797Z,7.50
2022-12-24T17:27:45.604Z,7.70
2022-12-24T17:30:12.638Z,7.79
2022-12-24T17:32:41.280Z,7.73
2022-12-24T17:35:08.334Z,7.78
2022-12-24T17:37:35.162Z,7.93
2022-12-24T17:40:02.001Z,8.01
2022-12-24T17:42:28.856Z,8.02
2022-12-24T17:44:56.438Z,7.93
2022-12-24T17:47:23.516Z,7.87
2022-12-24T17:49:50.359Z,7.80
2022-12-24T17:52:17.222Z,7.75
2022-12-24T17:54:44.057Z,7.65
2022-12-24T17:57:10.864Z,7.73
2022-12-24T17:59:37.659Z,7.73
2022-12-24T18:02:04.725Z,7.76
2022-12-24T18:04:31.622Z,7.72
2022-12-24T18:07:02.513Z,7.54
2022-12-24T18:09:30.379Z,7.61
2022-12-24T18:11:57.214Z,7.38
2022-12-24T18:14:24.092Z,7.34
2022-12-24T18:16:51.022Z,7.19
2022-12-24T18:19:17.941Z,7.09
2022-12-24T18:21:44.814Z,7.07
2022-12-24T18:24:12.441Z,7.04
2022-12-24T18:26:39.341Z,6.86
2022-12-24T18:29:06.426Z,6.87
2022-12-24T18:31:33.952Z,6.95
2022-12-24T18:34:01.746Z,6.82
2022-12-24T18:36:28.912Z,6.75
2022-12-24T18:38:55.786Z,6.76
2022-12-24T18:41:24.555Z,6.89
2022-12-24T18:43:51.820Z,6.97
2022-12-24T18:46:20.336Z,7.04
2022-12-24T18:48:47.389Z,7.08
2022-12-24T18:51:14.280Z,7.03
2022-12-24T18:53:41.336Z,6.99
2022-12-24T18:56:11.322Z,7.07
2022-12-24T18:58:38.247Z,6.92
2022-12-24T19:01:11.194Z,7.04
2022-12-24T19:03:38.426Z,6.91
2022-12-24T19:06:05.422Z,7.14
2022-12-24T19:11:19.634Z,7.11
2022-12-24T19:13:49.816Z,7.06
2022-12-24T19:16:17.216Z,7.01
2022-12-24T19:18:44.137Z,7.06
2022-12-24T19:21:12.133Z,6.92
2022-12-24T19:23:39.003Z,6.95
2022-12-24T19:26:05.847Z,7.02
2022-12-24T19:28:33.219Z,6.97
2022-12-24T19:31:04.444Z,7.02
2022-12-24T19:33:31.394Z,7.08
2022-12-24T19:36:04.260Z,6.90
2022-12-24T19:38:31.183Z,6.73
2022-12-24T19:41:04.396Z,6.72
2022-12-24T19:43:31.213Z,6.68
2022-12-24T19:45:58.280Z,6.64
2022-12-24T19:48:25.845Z,6.68
2022-12-24T19:50:59.228Z,6.64
2022-12-24T19:53:26.032Z,6.66
2022-12-24T19:55:52.871Z,6.66
2022-12-24T19:58:19.766Z,6.63
2022-12-24T20:00:46.660Z,6.61
2022-12-24T20:03:14.067Z,6.55
2022-12-24T20:05:41.732Z,6.58
2022-12-24T20:08:08.726Z,6.70
2022-12-24T20:10:42.567Z,6.56
2022-12-24T20:13:10.062Z,6.45
2022-12-24T20:15:40.465Z,6.48
2022-12-24T20:18:08.140Z,6.42
2022-12-24T20:20:35.373Z,6.41
2022-12-24T20:23:02.740Z,6.40
2022-12-24T20:25:29.558Z,6.40
2022-12-24T20:27:56.458Z,6.43
2022-12-24T20:30:23.334Z,6.44
2022-12-24T20:32:52.640Z,6.51
2022-12-24T20:35:19.585Z,6.49
2022-12-24T20:37:46.602Z,6.58
2022-12-24T20:40:13.609Z,6.53
2022-12-24T20:42:40.996Z,6.58
2022-12-24T20:45:07.982Z,6.61
2022-12-24T20:47:34.818Z,6.66
2022-12-24T20:50:01.663Z,6.68
2022-12-24T20:52:28.530Z,6.92
2022-12-24T20:54:55.354Z,6.80
2022-12-24T20:57:26.765Z,6.76
2022-12-24T20:59:56.375Z,6.73
2022-12-24T21:02:24.851Z,6.81
2022-12-24T21:04:55.355Z,7.00
2022-12-24T21:07:26.803Z,7.02
2022-12-24T21:09:53.601Z,6.98
2022-12-24T21:12:38.858Z,6.98
2022-12-24T21:15:05.844Z,6.97
2022-12-24T21:17:32.745Z,6.96
2022-12-24T21:20:00.468Z,6.85
2022-12-24T21:22:27.312Z,6.71
2022-12-24T21:24:54.207Z,6.71
2022-12-24T21:27:21.627Z,6.78
2022-12-24T21:29:48.817Z,6.80
2022-12-24T21:32:15.684Z,6.75
2022-12-24T21:34:42.485Z,6.75
2022-12-24T21:37:09.317Z,6.75
2022-12-24T21:39:36.215Z,6.77
2022-12-24T21:42:03.134Z,6.78
2022-12-24T21:44:29.937Z,6.79
2022-12-24T21:46:56.749Z,6.73
2022-12-24T21:49:42.372Z,6.84
2022-12-24T21:52:09.210Z,6.86
2022-12-24T21:54:36.142Z,6.88
2022-12-24T21:57:22.701Z,6.92
2022-12-24T21:59:51.021Z,6.87
2022-12-24T22:02:18.522Z,6.88
2022-12-24T22:04:45.620Z,6.85
2022-12-24T22:07:37.782Z,6.86
2022-12-24T22:10:23.865Z,6.85
2022-12-24T22:12:50.714Z,6.88
2022-12-24T22:15:17.824Z,6.90
2022-12-24T22:17:44.657Z,6.90
2022-12-24T22:20:11.533Z,6.91
2022-12-24T22:22:38.373Z,6.87
2022-12-24T22:25:06.391Z,6.96
2022-12-24T22:27:33.233Z,6.93
2022-12-24T22:30:00.062Z,6.94
2022-12-24T22:32:26.922Z,6.95
2022-12-24T22:34:53.832Z,6.91
2022-12-24T22:37:20.706Z,6.94
2022-12-24T22:39:47.543Z,6.91
2022-12-24T22:42:14.375Z,6.96
2022-12-24T22:44:41.218Z,6.92
2022-12-24T22:47:08.094Z,6.93
2022-12-24T22:49:36.639Z,6.89
2022-12-24T22:52:03.530Z,6.99
2022-12-24T22:54:30.374Z,6.94
2022-12-24T22:56:57.213Z,6.95
2022-12-24T22:59:24.093Z,6.90
2022-12-24T23:01:52.521Z,6.98
2022-12-24T23:04:19.584Z,6.98
2022-12-24T23:06:46.456Z,7.08
2022-12-24T23:09:15.710Z,7.12
2022-12-24T23:11:43.108Z,7.11
2022-12-24T23:14:38.614Z,7.19
2022-12-24T23:17:06.100Z,7.12
2022-12-24T23:19:33.510Z,7.15
2022-12-24T23:22:01.493Z,7.26
2022-12-24T23:24:28.423Z,7.30
2022-12-24T23:26:55.407Z,7.25
2022-12-24T23:29:22.256Z,7.27
2022-12-24T23:31:49.093Z,7.20
2022-12-24T23:34:15.917Z,7.30
2022-12-24T23:36:42.726Z,7.22
2022-12-24T23:39:09.606Z,7.20
2022-12-24T23:41:36.487Z,7.26
2022-12-24T23:44:03.663Z,7.31
2022-12-24T23:46:30.615Z,7.19
2022-12-24T23:48:57.742Z,7.19
2022-12-24T23:51:26.091Z,7.20
2022-12-24T23:53:53.853Z,7.19
2022-12-24T23:56:21.098Z,7.17
2022-12-24T23:58:48.236Z,7.21
